Jeśli jesteś właścicielem tej strony, możesz wyłączyć reklamę poniżej zmieniając pakiet na PRO lub VIP w panelu naszego hostingu już od 4zł!
Strony WWWSerwery VPSDomenyHostingDarmowy Hosting CBA.pl

Raporty najbliższych stacji METAR

 

EPPO - Poznan/Lawica, Poland
Odległość od stacji: Zd 102km
Aktualizacja: 18-04-24 04:00
Patches of fog, Zamglenia, Częściowe zachmurzenie
Patches of fog, Zamglenia, Częściowe zachmurzenie
 Wiatr z Zd
Wiatr: Zd 2 km/h
Temperatura: 10°C
Punkt Rosy: 10°C
Wilgotność: 100%
Ciśnienie: 1014 hPa
Podsumowanie: Patches of fog, Zamglenia
Zachmurzenie: Częściowe zachmurzenie
Widoczność: 3 km
Szczegóły o zachmurzeniu: niewielkie zachmurzenie 122 m
Częściowe zachmurzenie 1097 m
2018/04/24 02:00 EPPO 240200Z 26001KT 2700 0700E BCFG BR FEW004 SCT036 10/10 Q1014 R10/290095
EPLL - Łódź, Ziemia Łódzka, Polska
Odległość od stacji: ES 127km
Aktualizacja: 18-04-24 04:00
Bezchmurnie
Bezchmurnie
 Wiatr z PnZd
Wiatr: PnZd 6 km/h
Temperatura: 11°C
Punkt Rosy: 10°C
Wilgotność: 94%
Ciśnienie: 1013 hPa
Podsumowanie: Bezchmurnie
Widoczność: większa niż 10 km
2018/04/24 02:00 EPLL 240200Z 32003KT 300V360 CAVOK 11/10 Q1013
EPWR - Wrocław, Dolny Śląsk, Polska
Odległość od stacji: PdZd 198km
Aktualizacja: 18-04-24 04:00
Bezchmurnie
Bezchmurnie
 Wiatr z Zd
Wiatr: Zd 9 km/h
Temperatura: 10°C
Wind Chill: 9°C
Punkt Rosy: 9°C
Wilgotność: 94%
Ciśnienie: 1015 hPa
Podsumowanie: Bezchmurnie
Widoczność: większa niż 10 km
2018/04/24 02:00 EPWR 240200Z 28005KT CAVOK 10/09 Q1015
 
EPWA - Warszawa, Mazowsze, Polska
Odległość od stacji: Ws 209km
Aktualizacja: 18-04-24 04:00
Przeważnie pochmurno
Przeważnie pochmurno
 Wiatr z PnZd
Wiatr: PnZd 13 km/h
Temperatura: 13°C
Punkt Rosy: 12°C
Wilgotność: 94%
Ciśnienie: 1012 hPa
Zachmurzenie: Przeważnie pochmurno
Widoczność: 10 km
Szczegóły o zachmurzeniu: Częściowe zachmurzenie 213 m
Przeważnie pochmurno 518 m
2018/04/24 02:00 EPWA 240200Z 31007KT 270V330 9999 SCT007 BKN017 13/12 Q1012 NOSIG
EPGD - Gdańsk, Pomorze, Polska
Odległość od stacji: Pn 253km
Aktualizacja: 18-04-24 04:00
Bezchmurnie
Bezchmurnie
 Wiatr z Zd
Wiatr: Zd 15 km/h
Temperatura: 7°C
Wind Chill: 4°C
Punkt Rosy: 4°C
Wilgotność: 81%
Ciśnienie: 1010 hPa
Podsumowanie: Bezchmurnie
Widoczność: większa niż 10 km
2018/04/24 02:00 EPGD 240200Z 26008KT CAVOK 07/04 Q1010
EPKT - Katowice, Śląsk, Polska
Odległość od stacji: Pd 270km
Aktualizacja: 18-04-24 04:00
Zamglenia, Przeważnie pochmurno
Zamglenia, Przeważnie pochmurno
 Wiatr z ZdPnZd
Wiatr: ZdPnZd 11 km/h
Temperatura: 11°C
Punkt Rosy: 10°C
Wilgotność: 94%
Ciśnienie: 1014 hPa
Podsumowanie: Zamglenia
Zachmurzenie: Przeważnie pochmurno
Widoczność: 5 km
Szczegóły o zachmurzeniu: niewielkie zachmurzenie 183 m
Przeważnie pochmurno 213 m
2018/04/24 02:00 EPKT 240200Z 29006KT 5000 BR FEW006 BKN007 11/10 Q1014
 
EPSC - Szczecin, Pomorze Zachodnie, Polska
Odległość od stacji: PnZd 329km
Aktualizacja: 18-04-24 04:00
Bezchmurnie
Bezchmurnie
 Wiatr z PdZd
Wiatr: PdZd 7 km/h
Temperatura: 9°C
Wind Chill: 8°C
Punkt Rosy: 3°C
Wilgotność: 66%
Ciśnienie: 1013 hPa
Podsumowanie: Bezchmurnie
Widoczność: większa niż 10 km
2018/04/24 02:00 EPSC 240200Z 22004KT CAVOK 09/03 Q1013
EPBY - Bydgoszcz
Odległość od stacji: Pn 95km
Aktualizacja: 18-04-24 04:00
Bezchmurnie
Bezchmurnie
 Wiatr z ZdPdZa
Wiatr: ZdPdZa 7 km/h
Temperatura: 7°C
Wind Chill: 6°C
Punkt Rosy: 5°C
Wilgotność: 87%
Ciśnienie: 1013 hPa
Podsumowanie: Bezchmurnie
Widoczność: większa niż 10 km
2018/04/24 02:00 EPBY 240200Z 24004KT CAVOK 07/05 Q1013
EPZG - Zielona Góra, Ziemia Lubuska, Polska
Odległość od stacji: ZdPdZa 235km
Aktualizacja: 18-04-24 04:00
Patches of fog, Zamglenia, Częściowe zachmurzenie
Patches of fog, Zamglenia, Częściowe zachmurzenie
 Wiatr z zmienny
Wiatr: zmienny 4 km/h
Temperatura: 10°C
Punkt Rosy: 9°C
Wilgotność: 94%
Ciśnienie: 1014 hPa
Podsumowanie: Patches of fog, Zamglenia
Zachmurzenie: Częściowe zachmurzenie
Widoczność: 2 km
2018/04/24 02:00 EPZG 240200Z VRB02KT 1800 0750SW BCFG BR NSC 10/09 Q1014